createdAt,value
2024-03-02T00:00:01.694Z,7.42
2024-03-02T00:15:02.331Z,7.19
2024-03-02T00:30:02.030Z,7.11
2024-03-02T00:45:01.674Z,6.96
2024-03-02T01:00:02.374Z,6.85
2024-03-02T01:15:02.036Z,6.67
2024-03-02T01:30:01.677Z,6.53
2024-03-02T01:45:02.359Z,6.41
2024-03-02T02:00:02.043Z,6.38
2024-03-02T02:15:01.667Z,6.28
2024-03-02T02:30:02.426Z,6.19
2024-03-02T02:45:02.109Z,6.06
2024-03-02T03:00:01.725Z,6.03
2024-03-02T03:15:02.446Z,5.9
2024-03-02T03:30:02.141Z,5.8
2024-03-02T03:45:01.728Z,5.68
2024-03-02T04:00:02.379Z,5.54
2024-03-02T04:15:01.975Z,5.44
2024-03-02T04:30:01.693Z,5.4
2024-03-02T04:45:02.341Z,5.43
2024-03-02T05:00:01.971Z,5.46
2024-03-02T05:15:01.608Z,5.51
2024-03-02T05:30:01.798Z,5.58
2024-03-02T05:45:02.461Z,5.63
2024-03-02T06:00:02.364Z,5.7
2024-03-02T06:15:01.985Z,5.81
2024-03-02T06:30:01.669Z,5.95
2024-03-02T06:45:02.270Z,6.1
2024-03-02T07:00:01.934Z,6.17
2024-03-02T07:15:01.637Z,6.25
2024-03-02T07:30:02.376Z,6.34
2024-03-02T07:45:01.980Z,6.42
2024-03-02T08:00:01.679Z,6.56
2024-03-02T08:15:02.394Z,6.81
2024-03-02T08:30:02.085Z,7.13
2024-03-02T08:45:01.755Z,7.51
2024-03-02T09:00:02.416Z,7.86
2024-03-02T09:15:02.062Z,8.15
2024-03-02T09:30:01.719Z,8.56
2024-03-02T09:45:02.326Z,9.25
2024-03-02T10:00:01.997Z,9.69
2024-03-02T10:15:01.646Z,10.23
2024-03-02T10:30:02.299Z,10.78
2024-03-02T10:45:01.919Z,11.09
2024-03-02T11:00:01.536Z,11.54
2024-03-02T11:15:02.210Z,12
2024-03-02T11:30:01.870Z,12.3
2024-03-02T11:45:02.521Z,12.66
2024-03-02T12:00:02.086Z,12.84
2024-03-02T12:15:01.689Z,13.07
2024-03-02T12:30:02.386Z,13.3
2024-03-02T12:45:02.044Z,13.57
2024-03-02T13:00:01.770Z,13.79
2024-03-02T13:15:02.384Z,14.17
2024-03-02T13:30:02.103Z,14.21
2024-03-02T13:45:01.750Z,14.35
2024-03-02T14:00:02.340Z,14.61
2024-03-02T14:15:01.927Z,14.68
2024-03-02T14:30:01.597Z,14.86
2024-03-02T14:45:02.192Z,15.21
2024-03-02T15:00:01.861Z,15.16
2024-03-02T15:15:02.636Z,15.08
2024-03-02T15:30:02.384Z,15.07
2024-03-02T15:45:02.023Z,14.98
2024-03-02T16:00:01.740Z,14.83
2024-03-02T16:15:02.395Z,14.68
2024-03-02T16:30:02.149Z,14.54
2024-03-02T16:45:01.816Z,14.32
2024-03-02T17:00:02.447Z,14.07
2024-03-02T17:15:02.060Z,13.79
2024-03-02T17:30:01.672Z,13.5
2024-03-02T17:45:02.320Z,13.27
2024-03-02T18:00:02.048Z,13.03
2024-03-02T18:15:01.740Z,12.75
2024-03-02T18:30:02.415Z,12.53
2024-03-02T18:45:02.107Z,12.29
2024-03-02T19:00:01.711Z,12.09
2024-03-02T19:15:02.324Z,11.9
2024-03-02T19:30:02.017Z,11.72
2024-03-02T19:45:01.658Z,11.54
2024-03-02T20:00:02.255Z,11.35
2024-03-02T20:15:01.952Z,11.17
2024-03-02T20:30:01.679Z,11.05
2024-03-02T20:45:02.328Z,10.9
2024-03-02T21:00:01.906Z,10.82
2024-03-02T21:15:02.520Z,10.71
2024-03-02T21:30:02.209Z,10.63
2024-03-02T21:45:01.813Z,10.51
2024-03-02T22:00:02.481Z,10.45
2024-03-02T22:15:02.187Z,10.35
2024-03-02T22:30:01.962Z,10.22
2024-03-02T22:45:01.616Z,10.17
2024-03-02T23:00:02.311Z,10.1
2024-03-02T23:15:01.940Z,9.99
2024-03-02T23:30:01.642Z,9.91
2024-03-02T23:45:02.283Z,9.82
